sensor_id;sensor_type;location;lat;lon;timestamp;P1;durP1;ratioP1;P2;durP2;ratioP2
59830;SDS011;45711;50.108;13.712;2022-11-15T00:00:31;78.38;;;25.58;;
59830;SDS011;45711;50.108;13.712;2022-11-15T00:03:00;89.57;;;24.88;;
59830;SDS011;45711;50.108;13.712;2022-11-15T00:05:27;76.60;;;25.52;;
59830;SDS011;45711;50.108;13.712;2022-11-15T00:07:53;79.75;;;25.38;;
59830;SDS011;45711;50.108;13.712;2022-11-15T00:10:21;81.15;;;24.98;;
59830;SDS011;45711;50.108;13.712;2022-11-15T00:12:50;74.55;;;24.75;;
59830;SDS011;45711;50.108;13.712;2022-11-15T00:15:17;98.82;;;25.77;;
59830;SDS011;45711;50.108;13.712;2022-11-15T00:17:48;108.82;;;24.60;;
59830;SDS011;45711;50.108;13.712;2022-11-15T00:20:13;109.65;;;25.40;;
59830;SDS011;45711;50.108;13.712;2022-11-15T00:22:47;120.03;;;26.08;;
59830;SDS011;45711;50.108;13.712;2022-11-15T00:25:15;96.65;;;25.63;;
59830;SDS011;45711;50.108;13.712;2022-11-15T00:27:41;86.70;;;25.55;;
59830;SDS011;45711;50.108;13.712;2022-11-15T00:30:10;83.70;;;24.83;;
59830;SDS011;45711;50.108;13.712;2022-11-15T00:32:41;71.60;;;23.27;;
59830;SDS011;45711;50.108;13.712;2022-11-15T00:35:07;89.07;;;22.88;;
59830;SDS011;45711;50.108;13.712;2022-11-15T00:37:33;48.83;;;22.27;;
59830;SDS011;45711;50.108;13.712;2022-11-15T00:40:01;42.92;;;18.95;;
59830;SDS011;45711;50.108;13.712;2022-11-15T00:42:27;112.68;;;22.02;;
59830;SDS011;45711;50.108;13.712;2022-11-15T00:44:52;104.22;;;23.17;;
59830;SDS011;45711;50.108;13.712;2022-11-15T00:47:18;97.30;;;21.63;;
59830;SDS011;45711;50.108;13.712;2022-11-15T00:49:47;184.30;;;26.25;;
59830;SDS011;45711;50.108;13.712;2022-11-15T00:52:14;72.45;;;22.70;;
59830;SDS011;45711;50.108;13.712;2022-11-15T00:54:43;143.70;;;22.48;;
59830;SDS011;45711;50.108;13.712;2022-11-15T00:57:12;89.45;;;21.45;;
59830;SDS011;45711;50.108;13.712;2022-11-15T00:59:44;96.80;;;23.73;;
59830;SDS011;45711;50.108;13.712;2022-11-15T01:02:11;83.95;;;22.13;;
59830;SDS011;45711;50.108;13.712;2022-11-15T01:04:44;128.38;;;23.88;;
59830;SDS011;45711;50.108;13.712;2022-11-15T01:07:16;129.05;;;22.38;;
59830;SDS011;45711;50.108;13.712;2022-11-15T01:09:51;91.85;;;20.70;;
59830;SDS011;45711;50.108;13.712;2022-11-15T01:12:17;128.52;;;22.45;;
59830;SDS011;45711;50.108;13.712;2022-11-15T01:14:51;117.45;;;22.42;;
59830;SDS011;45711;50.108;13.712;2022-11-15T01:17:24;71.43;;;20.23;;
59830;SDS011;45711;50.108;13.712;2022-11-15T01:19:52;56.03;;;20.23;;
59830;SDS011;45711;50.108;13.712;2022-11-15T01:22:19;87.93;;;20.23;;
59830;SDS011;45711;50.108;13.712;2022-11-15T01:24:45;99.28;;;23.65;;
59830;SDS011;45711;50.108;13.712;2022-11-15T01:27:14;100.93;;;21.10;;
59830;SDS011;45711;50.108;13.712;2022-11-15T01:29:44;92.47;;;23.10;;
59830;SDS011;45711;50.108;13.712;2022-11-15T01:32:19;122.70;;;21.50;;
59830;SDS011;45711;50.108;13.712;2022-11-15T01:34:45;137.57;;;19.98;;
59830;SDS011;45711;50.108;13.712;2022-11-15T01:37:13;90.63;;;19.90;;
59830;SDS011;45711;50.108;13.712;2022-11-15T01:39:39;56.90;;;18.50;;
59830;SDS011;45711;50.108;13.712;2022-11-15T01:42:05;57.78;;;18.45;;
59830;SDS011;45711;50.108;13.712;2022-11-15T01:44:41;82.22;;;18.15;;
59830;SDS011;45711;50.108;13.712;2022-11-15T01:47:16;74.95;;;16.95;;
59830;SDS011;45711;50.108;13.712;2022-11-15T01:49:47;96.65;;;18.67;;
59830;SDS011;45711;50.108;13.712;2022-11-15T01:52:24;87.63;;;17.95;;
59830;SDS011;45711;50.108;13.712;2022-11-15T01:54:53;70.32;;;16.67;;
59830;SDS011;45711;50.108;13.712;2022-11-15T01:57:32;77.00;;;17.83;;
59830;SDS011;45711;50.108;13.712;2022-11-15T02:00:00;59.75;;;19.65;;
59830;SDS011;45711;50.108;13.712;2022-11-15T02:02:32;46.60;;;17.38;;
59830;SDS011;45711;50.108;13.712;2022-11-15T02:04:59;54.88;;;17.00;;
59830;SDS011;45711;50.108;13.712;2022-11-15T02:07:30;49.13;;;17.60;;
59830;SDS011;45711;50.108;13.712;2022-11-15T02:10:06;38.45;;;17.60;;
59830;SDS011;45711;50.108;13.712;2022-11-15T02:12:41;34.33;;;16.23;;
59830;SDS011;45711;50.108;13.712;2022-11-15T02:15:07;36.42;;;16.52;;
59830;SDS011;45711;50.108;13.712;2022-11-15T02:17:44;34.97;;;15.40;;
59830;SDS011;45711;50.108;13.712;2022-11-15T02:20:28;35.25;;;16.40;;
59830;SDS011;45711;50.108;13.712;2022-11-15T02:23:19;36.90;;;16.75;;
59830;SDS011;45711;50.108;13.712;2022-11-15T02:26:08;36.20;;;16.98;;
59830;SDS011;45711;50.108;13.712;2022-11-15T02:28:56;34.13;;;16.70;;
59830;SDS011;45711;50.108;13.712;2022-11-15T02:31:29;68.80;;;18.15;;
59830;SDS011;45711;50.108;13.712;2022-11-15T02:34:05;45.58;;;17.92;;
59830;SDS011;45711;50.108;13.712;2022-11-15T02:36:43;36.28;;;16.85;;
59830;SDS011;45711;50.108;13.712;2022-11-15T02:39:23;31.65;;;15.85;;
59830;SDS011;45711;50.108;13.712;2022-11-15T02:42:00;32.67;;;16.75;;
59830;SDS011;45711;50.108;13.712;2022-11-15T02:44:49;37.17;;;16.77;;
59830;SDS011;45711;50.108;13.712;2022-11-15T02:47:21;37.08;;;17.02;;
59830;SDS011;45711;50.108;13.712;2022-11-15T02:49:54;36.78;;;16.13;;
59830;SDS011;45711;50.108;13.712;2022-11-15T02:52:30;35.85;;;16.75;;
59830;SDS011;45711;50.108;13.712;2022-11-15T02:54:59;40.25;;;17.85;;
59830;SDS011;45711;50.108;13.712;2022-11-15T02:57:29;35.97;;;16.00;;
59830;SDS011;45711;50.108;13.712;2022-11-15T03:00:06;35.45;;;17.45;;
59830;SDS011;45711;50.108;13.712;2022-11-15T03:02:42;46.03;;;17.65;;
59830;SDS011;45711;50.108;13.712;2022-11-15T03:05:33;43.97;;;16.17;;
59830;SDS011;45711;50.108;13.712;2022-11-15T03:08:16;40.05;;;17.65;;
59830;SDS011;45711;50.108;13.712;2022-11-15T03:10:50;45.33;;;16.95;;
59830;SDS011;45711;50.108;13.712;2022-11-15T03:13:30;40.05;;;16.80;;
59830;SDS011;45711;50.108;13.712;2022-11-15T03:16:21;40.88;;;16.20;;
59830;SDS011;45711;50.108;13.712;2022-11-15T03:18:58;64.95;;;16.35;;
59830;SDS011;45711;50.108;13.712;2022-11-15T03:21:31;49.40;;;16.60;;
59830;SDS011;45711;50.108;13.712;2022-11-15T03:24:16;63.85;;;15.50;;
59830;SDS011;45711;50.108;13.712;2022-11-15T03:26:54;55.15;;;15.43;;
59830;SDS011;45711;50.108;13.712;2022-11-15T03:29:39;40.95;;;15.02;;
59830;SDS011;45711;50.108;13.712;2022-11-15T03:33:08;46.22;;;14.50;;
59830;SDS011;45711;50.108;13.712;2022-11-15T03:35:42;44.45;;;14.00;;
59830;SDS011;45711;50.108;13.712;2022-11-15T03:38:36;55.95;;;15.23;;
59830;SDS011;45711;50.108;13.712;2022-11-15T03:41:21;52.28;;;14.70;;
59830;SDS011;45711;50.108;13.712;2022-11-15T03:44:42;115.50;;;17.30;;
59830;SDS011;45711;50.108;13.712;2022-11-15T03:47:31;97.03;;;15.55;;
59830;SDS011;45711;50.108;13.712;2022-11-15T03:50:24;84.78;;;17.23;;
59830;SDS011;45711;50.108;13.712;2022-11-15T03:53:12;134.98;;;17.40;;
59830;SDS011;45711;50.108;13.712;2022-11-15T03:56:05;115.95;;;17.73;;
59830;SDS011;45711;50.108;13.712;2022-11-15T03:58:55;104.40;;;17.42;;
59830;SDS011;45711;50.108;13.712;2022-11-15T04:01:48;80.57;;;16.00;;
59830;SDS011;45711;50.108;13.712;2022-11-15T04:07:50;100.03;;;18.35;;
59830;SDS011;45711;50.108;13.712;2022-11-15T04:12:51;67.13;;;17.23;;
59830;SDS011;45711;50.108;13.712;2022-11-15T04:15:20;87.47;;;18.27;;
59830;SDS011;45711;50.108;13.712;2022-11-15T04:17:49;131.90;;;19.15;;
59830;SDS011;45711;50.108;13.712;2022-11-15T04:20:27;96.82;;;19.45;;
59830;SDS011;45711;50.108;13.712;2022-11-15T04:23:17;60.25;;;18.35;;
59830;SDS011;45711;50.108;13.712;2022-11-15T04:26:05;109.57;;;19.52;;
59830;SDS011;45711;50.108;13.712;2022-11-15T04:28:34;70.38;;;18.13;;
59830;SDS011;45711;50.108;13.712;2022-11-15T04:31:00;73.95;;;18.48;;
59830;SDS011;45711;50.108;13.712;2022-11-15T04:33:26;97.43;;;19.08;;
59830;SDS011;45711;50.108;13.712;2022-11-15T04:35:54;78.63;;;16.73;;
59830;SDS011;45711;50.108;13.712;2022-11-15T04:38:40;72.60;;;15.77;;
59830;SDS011;45711;50.108;13.712;2022-11-15T04:41:10;71.00;;;16.90;;
59830;SDS011;45711;50.108;13.712;2022-11-15T04:43:38;71.78;;;18.95;;
59830;SDS011;45711;50.108;13.712;2022-11-15T04:46:12;55.22;;;14.63;;
59830;SDS011;45711;50.108;13.712;2022-11-15T04:48:38;61.33;;;15.75;;
59830;SDS011;45711;50.108;13.712;2022-11-15T04:51:04;90.93;;;15.82;;
59830;SDS011;45711;50.108;13.712;2022-11-15T04:53:32;118.25;;;18.50;;
59830;SDS011;45711;50.108;13.712;2022-11-15T04:56:03;136.10;;;17.50;;
59830;SDS011;45711;50.108;13.712;2022-11-15T04:58:31;107.68;;;16.52;;
59830;SDS011;45711;50.108;13.712;2022-11-15T05:00:57;135.20;;;18.23;;
59830;SDS011;45711;50.108;13.712;2022-11-15T05:03:23;96.90;;;15.27;;
59830;SDS011;45711;50.108;13.712;2022-11-15T05:06:07;87.28;;;14.43;;
59830;SDS011;45711;50.108;13.712;2022-11-15T05:08:33;97.90;;;16.58;;
59830;SDS011;45711;50.108;13.712;2022-11-15T05:11:02;123.85;;;18.67;;
59830;SDS011;45711;50.108;13.712;2022-11-15T05:13:28;84.53;;;14.52;;
59830;SDS011;45711;50.108;13.712;2022-11-15T05:16:00;91.28;;;15.88;;
59830;SDS011;45711;50.108;13.712;2022-11-15T05:18:25;109.82;;;15.02;;
59830;SDS011;45711;50.108;13.712;2022-11-15T05:20:51;112.25;;;15.90;;
59830;SDS011;45711;50.108;13.712;2022-11-15T05:23:17;116.18;;;15.30;;
59830;SDS011;45711;50.108;13.712;2022-11-15T05:25:43;106.57;;;15.60;;
59830;SDS011;45711;50.108;13.712;2022-11-15T05:28:10;106.95;;;13.65;;
59830;SDS011;45711;50.108;13.712;2022-11-15T05:30:36;104.88;;;15.02;;
59830;SDS011;45711;50.108;13.712;2022-11-15T05:33:02;113.15;;;15.90;;
59830;SDS011;45711;50.108;13.712;2022-11-15T05:35:29;106.22;;;15.27;;
59830;SDS011;45711;50.108;13.712;2022-11-15T05:37:57;100.18;;;16.13;;
59830;SDS011;45711;50.108;13.712;2022-11-15T05:40:23;80.75;;;15.77;;
59830;SDS011;45711;50.108;13.712;2022-11-15T05:42:49;97.63;;;16.60;;
59830;SDS011;45711;50.108;13.712;2022-11-15T05:45:17;48.30;;;12.98;;
59830;SDS011;45711;50.108;13.712;2022-11-15T05:47:52;88.80;;;18.85;;
59830;SDS011;45711;50.108;13.712;2022-11-15T05:51:04;88.18;;;14.93;;
59830;SDS011;45711;50.108;13.712;2022-11-15T05:53:16;58.35;;;12.90;;
59830;SDS011;45711;50.108;13.712;2022-11-15T05:55:44;87.70;;;14.65;;
59830;SDS011;45711;50.108;13.712;2022-11-15T05:58:10;71.45;;;13.95;;
59830;SDS011;45711;50.108;13.712;2022-11-15T06:00:39;44.42;;;13.90;;
59830;SDS011;45711;50.108;13.712;2022-11-15T06:03:08;35.70;;;13.45;;
59830;SDS011;45711;50.108;13.712;2022-11-15T06:05:34;84.07;;;14.38;;
59830;SDS011;45711;50.108;13.712;2022-11-15T06:08:00;83.25;;;14.05;;
59830;SDS011;45711;50.108;13.712;2022-11-15T06:10:26;78.88;;;14.98;;
59830;SDS011;45711;50.108;13.712;2022-11-15T06:12:58;63.70;;;16.60;;
59830;SDS011;45711;50.108;13.712;2022-11-15T06:15:26;83.60;;;17.45;;
59830;SDS011;45711;50.108;13.712;2022-11-15T06:17:57;87.97;;;16.23;;
59830;SDS011;45711;50.108;13.712;2022-11-15T06:20:26;78.40;;;16.63;;
59830;SDS011;45711;50.108;13.712;2022-11-15T06:22:56;69.07;;;14.88;;
59830;SDS011;45711;50.108;13.712;2022-11-15T06:25:23;62.75;;;13.50;;
59830;SDS011;45711;50.108;13.712;2022-11-15T06:27:50;77.88;;;13.88;;
59830;SDS011;45711;50.108;13.712;2022-11-15T06:33:16;57.60;;;14.23;;
59830;SDS011;45711;50.108;13.712;2022-11-15T06:35:44;69.57;;;14.85;;
59830;SDS011;45711;50.108;13.712;2022-11-15T06:38:21;55.85;;;13.35;;
59830;SDS011;45711;50.108;13.712;2022-11-15T06:40:46;57.45;;;13.35;;
59830;SDS011;45711;50.108;13.712;2022-11-15T06:43:24;72.80;;;13.90;;
59830;SDS011;45711;50.108;13.712;2022-11-15T06:45:51;116.18;;;16.15;;
59830;SDS011;45711;50.108;13.712;2022-11-15T06:48:41;61.03;;;13.68;;
59830;SDS011;45711;50.108;13.712;2022-11-15T06:51:46;49.28;;;13.02;;
59830;SDS011;45711;50.108;13.712;2022-11-15T07:01:04;37.83;;;9.43;;
59830;SDS011;45711;50.108;13.712;2022-11-15T07:13:31;73.47;;;12.55;;
59830;SDS011;45711;50.108;13.712;2022-11-15T07:25:04;52.85;;;12.32;;
59830;SDS011;45711;50.108;13.712;2022-11-15T07:28:55;62.15;;;12.25;;
59830;SDS011;45711;50.108;13.712;2022-11-15T07:34:06;41.25;;;10.32;;
59830;SDS011;45711;50.108;13.712;2022-11-15T07:37:10;31.00;;;10.07;;
59830;SDS011;45711;50.108;13.712;2022-11-15T07:45:03;60.67;;;10.07;;
59830;SDS011;45711;50.108;13.712;2022-11-15T08:14:43;54.65;;;12.00;;
59830;SDS011;45711;50.108;13.712;2022-11-15T08:17:19;71.85;;;11.98;;
59830;SDS011;45711;50.108;13.712;2022-11-15T08:20:04;61.17;;;12.15;;
59830;SDS011;45711;50.108;13.712;2022-11-15T08:23:24;44.33;;;10.80;;
59830;SDS011;45711;50.108;13.712;2022-11-15T08:26:05;46.72;;;9.75;;
59830;SDS011;45711;50.108;13.712;2022-11-15T08:38:36;73.47;;;10.98;;
59830;SDS011;45711;50.108;13.712;2022-11-15T08:41:44;35.83;;;9.65;;
59830;SDS011;45711;50.108;13.712;2022-11-15T08:44:22;123.10;;;17.00;;
59830;SDS011;45711;50.108;13.712;2022-11-15T08:47:24;43.97;;;10.73;;
59830;SDS011;45711;50.108;13.712;2022-11-15T08:49:53;51.47;;;12.37;;
59830;SDS011;45711;50.108;13.712;2022-11-15T09:21:29;26.70;;;10.05;;
59830;SDS011;45711;50.108;13.712;2022-11-15T09:24:31;37.75;;;10.38;;
59830;SDS011;45711;50.108;13.712;2022-11-15T09:26:57;45.45;;;10.18;;
59830;SDS011;45711;50.108;13.712;2022-11-15T09:29:25;26.35;;;10.15;;
59830;SDS011;45711;50.108;13.712;2022-11-15T09:38:25;63.08;;;12.00;;
59830;SDS011;45711;50.108;13.712;2022-11-15T09:40:52;28.08;;;10.40;;
59830;SDS011;45711;50.108;13.712;2022-11-15T09:43:44;41.33;;;11.05;;
59830;SDS011;45711;50.108;13.712;2022-11-15T09:46:20;21.17;;;10.30;;
59830;SDS011;45711;50.108;13.712;2022-11-15T09:52:30;39.30;;;11.27;;
59830;SDS011;45711;50.108;13.712;2022-11-15T09:55:21;32.90;;;10.93;;
59830;SDS011;45711;50.108;13.712;2022-11-15T09:57:56;40.65;;;11.60;;
59830;SDS011;45711;50.108;13.712;2022-11-15T10:00:27;33.47;;;11.45;;
59830;SDS011;45711;50.108;13.712;2022-11-15T10:03:08;27.13;;;11.93;;
59830;SDS011;45711;50.108;13.712;2022-11-15T10:05:37;32.85;;;11.80;;
59830;SDS011;45711;50.108;13.712;2022-11-15T10:08:05;34.70;;;12.15;;
59830;SDS011;45711;50.108;13.712;2022-11-15T10:10:47;40.40;;;12.38;;
59830;SDS011;45711;50.108;13.712;2022-11-15T10:13:16;43.75;;;12.57;;
59830;SDS011;45711;50.108;13.712;2022-11-15T10:15:46;25.77;;;11.25;;
59830;SDS011;45711;50.108;13.712;2022-11-15T10:18:14;27.58;;;12.13;;
59830;SDS011;45711;50.108;13.712;2022-11-15T10:20:46;32.08;;;11.35;;
59830;SDS011;45711;50.108;13.712;2022-11-15T10:23:14;28.00;;;12.30;;
59830;SDS011;45711;50.108;13.712;2022-11-15T10:25:42;31.42;;;12.35;;
59830;SDS011;45711;50.108;13.712;2022-11-15T10:28:12;27.23;;;12.23;;
59830;SDS011;45711;50.108;13.712;2022-11-15T10:30:48;29.73;;;12.95;;
59830;SDS011;45711;50.108;13.712;2022-11-15T10:36:16;29.85;;;14.30;;
59830;SDS011;45711;50.108;13.712;2022-11-15T10:41:38;35.13;;;14.05;;
59830;SDS011;45711;50.108;13.712;2022-11-15T10:44:17;36.63;;;13.95;;
59830;SDS011;45711;50.108;13.712;2022-11-15T10:47:04;34.40;;;13.25;;
59830;SDS011;45711;50.108;13.712;2022-11-15T10:49:52;36.95;;;12.40;;
59830;SDS011;45711;50.108;13.712;2022-11-15T10:52:21;30.38;;;13.77;;
59830;SDS011;45711;50.108;13.712;2022-11-15T10:54:49;34.72;;;13.93;;
59830;SDS011;45711;50.108;13.712;2022-11-15T10:57:20;42.15;;;14.82;;
59830;SDS011;45711;50.108;13.712;2022-11-15T10:59:49;35.25;;;14.25;;
59830;SDS011;45711;50.108;13.712;2022-11-15T11:02:32;33.55;;;14.88;;
59830;SDS011;45711;50.108;13.712;2022-11-15T11:05:24;41.03;;;16.05;;
59830;SDS011;45711;50.108;13.712;2022-11-15T11:07:56;45.10;;;14.68;;
59830;SDS011;45711;50.108;13.712;2022-11-15T11:10:31;43.55;;;16.77;;
59830;SDS011;45711;50.108;13.712;2022-11-15T11:13:12;47.88;;;17.25;;
59830;SDS011;45711;50.108;13.712;2022-11-15T11:15:40;39.70;;;17.35;;
59830;SDS011;45711;50.108;13.712;2022-11-15T11:18:15;43.53;;;16.90;;
59830;SDS011;45711;50.108;13.712;2022-11-15T11:21:03;42.15;;;17.00;;
59830;SDS011;45711;50.108;13.712;2022-11-15T11:27:12;37.85;;;15.68;;
59830;SDS011;45711;50.108;13.712;2022-11-15T11:30:40;42.92;;;16.85;;
59830;SDS011;45711;50.108;13.712;2022-11-15T11:33:15;40.22;;;16.45;;
59830;SDS011;45711;50.108;13.712;2022-11-15T11:36:06;41.38;;;17.23;;
59830;SDS011;45711;50.108;13.712;2022-11-15T11:39:28;49.50;;;17.45;;
59830;SDS011;45711;50.108;13.712;2022-11-15T11:42:30;33.63;;;15.07;;
59830;SDS011;45711;50.108;13.712;2022-11-15T11:45:18;38.10;;;16.25;;
59830;SDS011;45711;50.108;13.712;2022-11-15T11:47:52;38.70;;;16.50;;
59830;SDS011;45711;50.108;13.712;2022-11-15T11:54:09;31.17;;;15.63;;
59830;SDS011;45711;50.108;13.712;2022-11-15T11:56:52;31.17;;;14.93;;
59830;SDS011;45711;50.108;13.712;2022-11-15T11:59:33;30.88;;;15.05;;
59830;SDS011;45711;50.108;13.712;2022-11-15T12:02:11;29.23;;;14.60;;
59830;SDS011;45711;50.108;13.712;2022-11-15T12:04:43;34.22;;;16.90;;
59830;SDS011;45711;50.108;13.712;2022-11-15T12:07:19;35.25;;;16.55;;
59830;SDS011;45711;50.108;13.712;2022-11-15T12:09:51;42.42;;;17.15;;
59830;SDS011;45711;50.108;13.712;2022-11-15T12:12:25;39.65;;;17.90;;
59830;SDS011;45711;50.108;13.712;2022-11-15T12:15:10;32.75;;;15.70;;
59830;SDS011;45711;50.108;13.712;2022-11-15T12:17:42;39.70;;;18.60;;
59830;SDS011;45711;50.108;13.712;2022-11-15T12:20:41;38.33;;;17.50;;
59830;SDS011;45711;50.108;13.712;2022-11-15T12:23:42;38.17;;;17.45;;
59830;SDS011;45711;50.108;13.712;2022-11-15T12:29:40;36.20;;;16.77;;
59830;SDS011;45711;50.108;13.712;2022-11-15T12:32:33;38.13;;;17.60;;
59830;SDS011;45711;50.108;13.712;2022-11-15T12:35:30;25.20;;;12.93;;
59830;SDS011;45711;50.108;13.712;2022-11-15T12:38:22;40.78;;;18.08;;
59830;SDS011;45711;50.108;13.712;2022-11-15T12:41:40;37.08;;;16.52;;
59830;SDS011;45711;50.108;13.712;2022-11-15T12:48:20;44.53;;;18.77;;
59830;SDS011;45711;50.108;13.712;2022-11-15T12:51:19;37.40;;;18.48;;
59830;SDS011;45711;50.108;13.712;2022-11-15T13:01:07;38.42;;;18.58;;
59830;SDS011;45711;50.108;13.712;2022-11-15T13:04:20;42.67;;;19.38;;
59830;SDS011;45711;50.108;13.712;2022-11-15T13:10:31;40.65;;;18.90;;
59830;SDS011;45711;50.108;13.712;2022-11-15T13:13:03;42.47;;;19.00;;
59830;SDS011;45711;50.108;13.712;2022-11-15T13:15:51;45.42;;;20.40;;
59830;SDS011;45711;50.108;13.712;2022-11-15T13:19:52;30.80;;;13.63;;
59830;SDS011;45711;50.108;13.712;2022-11-15T13:21:33;41.03;;;19.10;;
59830;SDS011;45711;50.108;13.712;2022-11-15T13:45:44;32.30;;;15.98;;
59830;SDS011;45711;50.108;13.712;2022-11-15T13:48:16;33.38;;;16.77;;
59830;SDS011;45711;50.108;13.712;2022-11-15T13:51:10;28.98;;;15.52;;
59830;SDS011;45711;50.108;13.712;2022-11-15T13:54:02;32.13;;;16.40;;
59830;SDS011;45711;50.108;13.712;2022-11-15T14:00:40;33.88;;;16.60;;
59830;SDS011;45711;50.108;13.712;2022-11-15T14:04:03;34.60;;;16.33;;
59830;SDS011;45711;50.108;13.712;2022-11-15T14:21:30;34.75;;;17.42;;
59830;SDS011;45711;50.108;13.712;2022-11-15T14:24:16;32.58;;;17.27;;
59830;SDS011;45711;50.108;13.712;2022-11-15T14:26:46;30.40;;;16.25;;
59830;SDS011;45711;50.108;13.712;2022-11-15T14:29:21;35.28;;;17.67;;
59830;SDS011;45711;50.108;13.712;2022-11-15T14:32:23;41.50;;;18.27;;
59830;SDS011;45711;50.108;13.712;2022-11-15T14:34:55;43.55;;;20.50;;
59830;SDS011;45711;50.108;13.712;2022-11-15T14:37:27;39.83;;;19.20;;
59830;SDS011;45711;50.108;13.712;2022-11-15T14:43:15;35.90;;;18.52;;
59830;SDS011;45711;50.108;13.712;2022-11-15T14:45:42;35.83;;;18.20;;
59830;SDS011;45711;50.108;13.712;2022-11-15T14:48:26;40.60;;;18.58;;
59830;SDS011;45711;50.108;13.712;2022-11-15T14:51:03;38.72;;;18.40;;
59830;SDS011;45711;50.108;13.712;2022-11-15T14:53:36;39.72;;;18.25;;
59830;SDS011;45711;50.108;13.712;2022-11-15T14:56:12;41.25;;;17.92;;
59830;SDS011;45711;50.108;13.712;2022-11-15T14:58:44;38.28;;;17.38;;
59830;SDS011;45711;50.108;13.712;2022-11-15T15:01:16;30.00;;;16.77;;
59830;SDS011;45711;50.108;13.712;2022-11-15T15:03:51;32.72;;;16.88;;
59830;SDS011;45711;50.108;13.712;2022-11-15T15:08:46;27.10;;;14.60;;
59830;SDS011;45711;50.108;13.712;2022-11-15T15:11:19;30.92;;;14.95;;
59830;SDS011;45711;50.108;13.712;2022-11-15T15:13:54;30.08;;;15.00;;
59830;SDS011;45711;50.108;13.712;2022-11-15T15:16:24;31.42;;;15.25;;
59830;SDS011;45711;50.108;13.712;2022-11-15T15:18:50;36.95;;;16.35;;
59830;SDS011;45711;50.108;13.712;2022-11-15T15:21:17;33.15;;;16.23;;
59830;SDS011;45711;50.108;13.712;2022-11-15T15:23:49;34.50;;;17.38;;
59830;SDS011;45711;50.108;13.712;2022-11-15T15:26:19;32.60;;;16.42;;
59830;SDS011;45711;50.108;13.712;2022-11-15T15:28:45;34.40;;;16.45;;
59830;SDS011;45711;50.108;13.712;2022-11-15T15:31:11;34.75;;;16.33;;
59830;SDS011;45711;50.108;13.712;2022-11-15T15:33:40;37.70;;;16.67;;
59830;SDS011;45711;50.108;13.712;2022-11-15T15:36:08;37.00;;;17.20;;
59830;SDS011;45711;50.108;13.712;2022-11-15T15:38:37;42.42;;;18.73;;
59830;SDS011;45711;50.108;13.712;2022-11-15T15:41:02;41.05;;;17.95;;
59830;SDS011;45711;50.108;13.712;2022-11-15T15:43:34;39.75;;;18.35;;
59830;SDS011;45711;50.108;13.712;2022-11-15T15:46:01;32.03;;;15.95;;
59830;SDS011;45711;50.108;13.712;2022-11-15T15:48:36;36.05;;;18.42;;
59830;SDS011;45711;50.108;13.712;2022-11-15T15:51:03;47.05;;;19.67;;
59830;SDS011;45711;50.108;13.712;2022-11-15T15:53:31;36.83;;;17.63;;
59830;SDS011;45711;50.108;13.712;2022-11-15T15:56:01;35.65;;;16.67;;
59830;SDS011;45711;50.108;13.712;2022-11-15T15:58:27;39.63;;;18.42;;
59830;SDS011;45711;50.108;13.712;2022-11-15T16:00:56;35.75;;;17.58;;
59830;SDS011;45711;50.108;13.712;2022-11-15T16:03:25;35.90;;;16.98;;
59830;SDS011;45711;50.108;13.712;2022-11-15T16:05:56;45.55;;;21.52;;
59830;SDS011;45711;50.108;13.712;2022-11-15T16:08:23;39.92;;;17.60;;
59830;SDS011;45711;50.108;13.712;2022-11-15T16:10:51;34.60;;;17.15;;
59830;SDS011;45711;50.108;13.712;2022-11-15T16:13:24;36.90;;;16.98;;
59830;SDS011;45711;50.108;13.712;2022-11-15T16:15:50;34.85;;;16.58;;
59830;SDS011;45711;50.108;13.712;2022-11-15T16:18:19;31.40;;;15.35;;
59830;SDS011;45711;50.108;13.712;2022-11-15T16:20:50;72.32;;;31.98;;
59830;SDS011;45711;50.108;13.712;2022-11-15T16:23:25;41.10;;;19.92;;
59830;SDS011;45711;50.108;13.712;2022-11-15T16:25:57;42.88;;;19.50;;
59830;SDS011;45711;50.108;13.712;2022-11-15T16:32:11;47.10;;;20.38;;
59830;SDS011;45711;50.108;13.712;2022-11-15T16:34:44;44.30;;;19.63;;
59830;SDS011;45711;50.108;13.712;2022-11-15T16:37:13;43.05;;;19.23;;
59830;SDS011;45711;50.108;13.712;2022-11-15T16:39:57;38.53;;;17.13;;
59830;SDS011;45711;50.108;13.712;2022-11-15T16:43:37;37.05;;;18.40;;
59830;SDS011;45711;50.108;13.712;2022-11-15T16:45:52;41.08;;;18.40;;
59830;SDS011;45711;50.108;13.712;2022-11-15T16:51:48;36.85;;;17.13;;
59830;SDS011;45711;50.108;13.712;2022-11-15T16:54:19;37.33;;;18.27;;
59830;SDS011;45711;50.108;13.712;2022-11-15T16:57:44;35.72;;;16.90;;
59830;SDS011;45711;50.108;13.712;2022-11-15T17:00:24;42.78;;;18.75;;
59830;SDS011;45711;50.108;13.712;2022-11-15T17:02:51;35.65;;;15.13;;
59830;SDS011;45711;50.108;13.712;2022-11-15T17:05:27;30.13;;;13.98;;
59830;SDS011;45711;50.108;13.712;2022-11-15T17:55:34;29.38;;;13.00;;
59830;SDS011;45711;50.108;13.712;2022-11-15T17:58:30;27.05;;;13.23;;
59830;SDS011;45711;50.108;13.712;2022-11-15T18:04:15;25.30;;;13.00;;
59830;SDS011;45711;50.108;13.712;2022-11-15T18:07:23;25.38;;;12.10;;
59830;SDS011;45711;50.108;13.712;2022-11-15T18:13:07;30.77;;;13.40;;
59830;SDS011;45711;50.108;13.712;2022-11-15T18:19:21;31.95;;;14.60;;
59830;SDS011;45711;50.108;13.712;2022-11-15T18:22:10;28.55;;;13.32;;
59830;SDS011;45711;50.108;13.712;2022-11-15T18:24:58;27.48;;;13.15;;
59830;SDS011;45711;50.108;13.712;2022-11-15T18:28:32;26.60;;;13.40;;
59830;SDS011;45711;50.108;13.712;2022-11-15T18:31:43;26.52;;;12.35;;
59830;SDS011;45711;50.108;13.712;2022-11-15T18:34:17;28.52;;;12.77;;
59830;SDS011;45711;50.108;13.712;2022-11-15T18:40:30;26.35;;;12.98;;
59830;SDS011;45711;50.108;13.712;2022-11-15T18:43:28;30.05;;;14.07;;
59830;SDS011;45711;50.108;13.712;2022-11-15T18:50:26;33.50;;;15.93;;
59830;SDS011;45711;50.108;13.712;2022-11-15T18:56:19;34.90;;;18.25;;
59830;SDS011;45711;50.108;13.712;2022-11-15T18:59:04;29.98;;;14.65;;
59830;SDS011;45711;50.108;13.712;2022-11-15T19:19:14;32.85;;;13.77;;
59830;SDS011;45711;50.108;13.712;2022-11-15T19:25:24;22.70;;;12.45;;
59830;SDS011;45711;50.108;13.712;2022-11-15T19:31:25;25.92;;;14.07;;
59830;SDS011;45711;50.108;13.712;2022-11-15T19:48:47;25.30;;;12.60;;
59830;SDS011;45711;50.108;13.712;2022-11-15T20:02:23;26.10;;;12.60;;
59830;SDS011;45711;50.108;13.712;2022-11-15T20:21:19;21.58;;;11.73;;
59830;SDS011;45711;50.108;13.712;2022-11-15T20:24:35;25.40;;;11.68;;
59830;SDS011;45711;50.108;13.712;2022-11-15T20:28:27;21.63;;;11.50;;
59830;SDS011;45711;50.108;13.712;2022-11-15T22:23:32;21.77;;;11.55;;
59830;SDS011;45711;50.108;13.712;2022-11-15T22:26:08;23.48;;;11.80;;
59830;SDS011;45711;50.108;13.712;2022-11-15T22:28:44;24.05;;;11.48;;
59830;SDS011;45711;50.108;13.712;2022-11-15T22:31:10;22.13;;;11.07;;
59830;SDS011;45711;50.108;13.712;2022-11-15T22:33:36;22.67;;;12.13;;
59830;SDS011;45711;50.108;13.712;2022-11-15T22:36:03;24.40;;;11.48;;